Sibirskiy-2112 — UBXE8 — position and weather

sailwx.info

Track history (hours):
 
Tides and Currents Weather Stations Pressure Air Temp Water Temp Dewpoint Dewpoint Depression Visibility Wind Speed Wind Dir Waves Ship Positions

Sibirskiy-2112

Last reported at 2014-Aug-13 14:19 UTC. Time now 2014-Aug-28 05:21 UTC.
Position N 45°06' E 036°33'.
Warning: this ship's position is 14 days out of date.

Length 130 m; draft 3.4 m.

Type: Cargo ship. MMSI: 273342420.

Date/timePositionNaut miles runAvg speedWind from/ knotsBaromVisibWave heightAir tempDewpointWater temp
2014-Aug-13 14:19N 45°06' E 036°33'  
2014-Aug-04 15:33N 44°45' E 035°33'6 5.9
2014-Aug-04 14:29N 44°43' E 035°25'5 5.7
2014-Aug-04 13:33N 44°41' E 035°18'6 5.8
2014-Aug-04 12:34N 44°38' E 035°11'6 5.7
2014-Aug-04 11:33N 44°36' E 035°04'5 5.5
2014-Aug-04 10:33N 44°33' E 034°57'5 5.5
2014-Aug-04 09:33N 44°31' E 034°50'5 5.0
2014-Aug-04 08:33N 44°28' E 034°44'5 5.2
2014-Aug-04 07:33N 44°25' E 034°38'5 5.2
2014-Aug-04 06:34N 44°22' E 034°32'5 5.4
2014-Aug-04 05:33N 44°19' E 034°26'5 5.4
2014-Aug-04 04:33N 44°16' E 034°19'  
Track history (hours):
 
Tides and Currents Weather Stations Pressure Air Temp Water Temp Dewpoint Dewpoint Depression Visibility Wind Speed Wind Dir Waves Ship Positions

Sibirskiy-2112

Last reported at 2014-Aug-13 14:19 UTC. Time now 2014-Aug-28 05:21 UTC.
Position N 45°06' E 036°33'.
Warning: this ship's position is 14 days out of date.

Length 130 m; draft 3.4 m.

Type: Cargo ship. MMSI: 273342420.

Date/timePositionNaut miles runAvg speedWind from/ knotsBaromVisibWave heightAir tempDewpointWater temp
2014-Aug-13 14:19N 45°06' E 036°33'  
2014-Aug-04 15:33N 44°45' E 035°33'6 5.9
2014-Aug-04 14:29N 44°43' E 035°25'5 5.7
2014-Aug-04 13:33N 44°41' E 035°18'6 5.8
2014-Aug-04 12:34N 44°38' E 035°11'6 5.7
2014-Aug-04 11:33N 44°36' E 035°04'5 5.5
2014-Aug-04 10:33N 44°33' E 034°57'5 5.5
2014-Aug-04 09:33N 44°31' E 034°50'5 5.0
2014-Aug-04 08:33N 44°28' E 034°44'5 5.2
2014-Aug-04 07:33N 44°25' E 034°38'5 5.2
2014-Aug-04 06:34N 44°22' E 034°32'5 5.4
2014-Aug-04 05:33N 44°19' E 034°26'5 5.4
2014-Aug-04 04:33N 44°16' E 034°19'  

Dump ship's entire track history